Time;durP1;ratioP1;P1;durP2;ratioP2;P2;SDS_P1;SDS_P2;PMS_P1;PMS_P2;Temp;Humidity;BMP_temperature;BMP_pressure;BME280_temperature;BME280_humidity;BME280_pressure;Samples;Min_cycle;Max_cycle;Signal;HPM_P1;HPM_P2
2023/10/26 00:00:32;;;;;;;29.87;19.80;;;10.30;99.90;;;;;;5053189;28;20430;-81
2023/10/26 00:02:58;;;;;;;35.63;20.47;;;10.30;99.90;;;;;;5034888;28;20420;-81
2023/10/26 00:05:24;;;;;;;32.13;20.83;;;10.20;99.90;;;;;;5021691;28;20038;-81
2023/10/26 00:07:51;;;;;;;33.20;21.30;;;10.30;99.90;;;;;;5036680;28;20409;-80
2023/10/26 00:10:17;;;;;;;33.53;21.97;;;10.30;99.90;;;;;;5003102;28;20056;-81
2023/10/26 00:12:46;;;;;;;31.83;21.70;;;10.30;99.90;;;;;;5022653;28;20057;-81
2023/10/26 00:15:11;;;;;;;36.23;22.57;;;10.20;99.90;;;;;;5034578;28;20046;-81
2023/10/26 00:17:38;;;;;;;36.20;22.63;;;10.20;99.90;;;;;;5019618;28;20136;-80
2023/10/26 00:20:08;;;;;;;33.40;22.40;;;10.20;99.90;;;;;;5053872;28;20045;-80
2023/10/26 00:22:33;;;;;;;38.17;24.43;;;10.30;99.90;;;;;;5053157;28;20096;-82
2023/10/26 00:24:59;;;;;;;35.70;23.73;;;10.20;99.90;;;;;;5052162;28;20045;-81
2023/10/26 00:27:25;;;;;;;38.43;24.50;;;10.20;99.90;;;;;;5047464;28;20095;-80
2023/10/26 00:29:50;;;;;;;39.53;25.83;;;10.20;99.90;;;;;;5025212;28;20051;-81
2023/10/26 00:32:16;;;;;;;40.70;26.27;;;10.20;99.90;;;;;;5036017;28;20045;-81
2023/10/26 00:34:42;;;;;;;41.80;26.07;;;10.20;99.90;;;;;;5005599;28;20045;-80
2023/10/26 00:37:07;;;;;;;40.40;26.07;;;10.20;99.90;;;;;;5018208;28;20046;-81
2023/10/26 00:39:34;;;;;;;40.57;27.07;;;10.30;99.90;;;;;;5005180;28;20042;-81
2023/10/26 00:41:59;;;;;;;42.50;28.37;;;10.20;99.90;;;;;;5070557;28;20080;-81
2023/10/26 00:44:25;;;;;;;48.07;28.50;;;10.20;99.90;;;;;;5020069;28;20034;-81
2023/10/26 00:46:52;;;;;;;46.53;27.73;;;10.30;99.90;;;;;;5036052;28;20071;-81
2023/10/26 00:49:19;;;;;;;45.90;28.47;;;10.20;99.90;;;;;;5016724;28;20041;-82
2023/10/26 00:51:55;;;;;;;43.47;29.20;;;10.20;99.90;;;;;;5036333;28;20041;-79
2023/10/26 00:54:22;;;;;;;46.47;30.20;;;10.20;99.90;;;;;;5018447;28;20054;-81
2023/10/26 00:56:50;;;;;;;46.40;29.97;;;10.20;99.90;;;;;;5052981;28;20076;-79
2023/10/26 00:59:17;;;;;;;53.00;31.10;;;10.20;99.90;;;;;;5054140;28;20046;-81
2023/10/26 01:01:48;;;;;;;52.63;32.67;;;10.20;99.90;;;;;;5025033;28;20543;-81
2023/10/26 01:04:14;;;;;;;51.03;30.80;;;10.20;99.90;;;;;;5038226;28;20057;-81
2023/10/26 01:06:44;;;;;;;50.27;31.63;;;10.20;99.90;;;;;;5038219;28;20482;-81
2023/10/26 01:09:10;;;;;;;50.60;31.80;;;10.20;99.90;;;;;;5025190;28;20622;-80
2023/10/26 01:11:37;;;;;;;55.67;33.83;;;10.10;99.90;;;;;;5006620;28;20034;-80
2023/10/26 01:14:05;;;;;;;52.60;32.80;;;10.10;99.90;;;;;;5057734;28;20034;-80
2023/10/26 01:16:30;;;;;;;55.90;33.87;;;10.10;99.90;;;;;;5039820;28;20057;-81
2023/10/26 01:19:03;;;;;;;61.57;36.43;;;10.10;99.90;;;;;;5023428;28;20049;-78
2023/10/26 01:21:46;;;;;;;54.97;34.50;;;10.10;99.90;;;;;;5056783;28;20041;-81
2023/10/26 01:24:12;;;;;;;56.83;34.27;;;10.10;99.90;;;;;;5021759;28;20052;-81
2023/10/26 01:26:40;;;;;;;62.10;36.33;;;10.10;99.90;;;;;;5055468;28;20049;-81
2023/10/26 01:29:06;;;;;;;60.87;36.83;;;10.00;99.90;;;;;;5006864;28;20045;-80
2023/10/26 01:31:32;;;;;;;65.87;37.17;;;10.10;99.90;;;;;;4991166;28;20118;-80
2023/10/26 01:33:58;;;;;;;62.87;38.80;;;10.00;99.90;;;;;;5027042;28;20072;-80
2023/10/26 01:36:23;;;;;;;62.93;37.13;;;10.10;99.90;;;;;;5005111;28;20091;-80
2023/10/26 01:38:49;;;;;;;61.03;37.30;;;10.10;99.90;;;;;;5024109;28;20046;-80
2023/10/26 01:41:15;;;;;;;61.23;37.63;;;10.00;99.90;;;;;;5004756;28;20034;-81
2023/10/26 01:43:40;;;;;;;68.40;39.83;;;10.00;99.90;;;;;;5022858;28;20045;-81
2023/10/26 01:46:06;;;;;;;67.87;38.13;;;10.00;99.90;;;;;;5004712;28;20045;-81
2023/10/26 01:48:32;;;;;;;60.80;38.87;;;10.00;99.90;;;;;;5021030;28;20049;-80
2023/10/26 01:50:58;;;;;;;65.13;40.00;;;10.00;99.90;;;;;;5004013;28;20069;-80
2023/10/26 01:53:25;;;;;;;71.03;39.70;;;10.00;99.90;;;;;;5054816;28;20038;-80
2023/10/26 01:55:51;;;;;;;65.80;39.03;;;9.90;99.90;;;;;;5056790;28;20412;-80
2023/10/26 01:58:17;;;;;;;62.80;38.60;;;9.90;99.90;;;;;;5004131;28;20045;-80
2023/10/26 02:00:43;;;;;;;66.73;39.53;;;10.00;99.90;;;;;;5006405;28;20060;-80
2023/10/26 02:03:08;;;;;;;68.97;40.20;;;9.90;99.90;;;;;;5037024;28;20420;-80
2023/10/26 02:05:34;;;;;;;69.63;40.70;;;9.90;99.90;;;;;;5048355;28;20072;-81
2023/10/26 02:08:00;;;;;;;66.43;38.73;;;9.90;99.90;;;;;;5005182;28;20037;-80
2023/10/26 02:10:29;;;;;;;66.27;38.83;;;9.90;99.90;;;;;;5020586;28;20037;-81
2023/10/26 02:12:58;;;;;;;69.67;41.07;;;9.90;99.90;;;;;;5006092;28;20041;-80
2023/10/26 02:15:24;;;;;;;72.67;40.83;;;9.90;99.90;;;;;;5047833;28;20043;-80
2023/10/26 02:17:49;;;;;;;72.37;40.23;;;9.80;99.90;;;;;;5038431;28;20045;-81
2023/10/26 02:20:15;;;;;;;67.47;40.10;;;9.90;99.90;;;;;;5023398;28;20049;-80
2023/10/26 02:22:41;;;;;;;74.03;41.17;;;9.80;99.90;;;;;;5007273;28;20053;-80
2023/10/26 02:25:07;;;;;;;73.93;42.33;;;9.80;99.90;;;;;;5021249;28;20038;-80
2023/10/26 02:27:33;;;;;;;70.70;41.33;;;9.80;99.90;;;;;;5071023;28;20283;-80
2023/10/26 02:29:59;;;;;;;66.63;38.83;;;9.80;99.90;;;;;;5039578;28;20048;-81
2023/10/26 02:32:26;;;;;;;76.67;42.77;;;9.80;99.90;;;;;;5039239;28;20057;-80
2023/10/26 02:34:52;;;;;;;67.73;39.43;;;9.80;99.90;;;;;;5039052;28;20467;-80
2023/10/26 02:37:19;;;;;;;69.67;40.77;;;9.80;99.90;;;;;;5037142;28;20049;-81
2023/10/26 02:39:48;;;;;;;77.00;42.37;;;9.80;99.90;;;;;;5034461;28;20041;-82
2023/10/26 02:42:14;;;;;;;73.33;42.23;;;9.80;99.90;;;;;;5004936;28;20132;-83
2023/10/26 02:44:39;;;;;;;76.03;42.43;;;9.80;99.90;;;;;;5006607;28;20606;-82
2023/10/26 02:47:05;;;;;;;77.10;42.57;;;9.80;99.90;;;;;;5023550;28;20100;-81
2023/10/26 02:49:31;;;;;;;78.37;42.77;;;9.80;99.90;;;;;;5003213;28;20124;-81
2023/10/26 02:51:57;;;;;;;72.67;41.63;;;9.80;99.90;;;;;;5021655;28;20041;-81
2023/10/26 02:54:27;;;;;;;70.67;40.70;;;9.80;99.90;;;;;;5036302;28;20726;-80
2023/10/26 02:56:53;;;;;;;70.40;40.83;;;9.80;99.90;;;;;;5020943;28;20091;-80
2023/10/26 02:59:19;;;;;;;76.77;42.67;;;9.80;99.90;;;;;;5036316;28;20042;-81
2023/10/26 03:01:45;;;;;;;73.03;41.23;;;9.80;99.90;;;;;;5036671;28;20049;-81
2023/10/26 03:04:11;;;;;;;70.63;40.87;;;9.80;99.90;;;;;;5038308;28;20102;-80
2023/10/26 03:06:38;;;;;;;76.43;42.77;;;9.80;99.90;;;;;;5035662;28;20041;-81
2023/10/26 03:09:04;;;;;;;78.90;43.07;;;9.80;99.90;;;;;;5021103;28;20045;-80
2023/10/26 03:11:31;;;;;;;80.27;43.57;;;9.80;99.90;;;;;;5020470;28;20049;-81
2023/10/26 03:13:56;;;;;;;80.50;43.27;;;9.80;99.90;;;;;;4995158;28;20056;-81
2023/10/26 03:16:22;;;;;;;82.90;43.53;;;9.80;99.90;;;;;;5022368;28;20045;-81
2023/10/26 03:18:48;;;;;;;69.63;40.53;;;9.80;99.90;;;;;;5002252;28;20058;-81
2023/10/26 03:21:16;;;;;;;73.80;42.03;;;9.80;99.90;;;;;;5006909;28;20570;-81
2023/10/26 03:23:41;;;;;;;69.67;39.80;;;9.80;99.90;;;;;;5003767;28;20059;-80
2023/10/26 03:26:11;;;;;;;66.53;40.17;;;9.90;99.90;;;;;;5007870;28;20104;-80
2023/10/26 03:28:37;;;;;;;72.67;41.93;;;9.90;99.90;;;;;;5034479;28;20069;-80
2023/10/26 03:31:09;;;;;;;70.73;40.90;;;9.90;99.90;;;;;;5006347;28;20049;-81
2023/10/26 03:33:34;;;;;;;;;;;9.90;99.90;;;;;;5022224;28;20060;-81
2023/10/26 03:36:00;;;;;;;75.50;41.50;;;9.80;99.90;;;;;;5037120;28;19921;-81
2023/10/26 03:38:26;;;;;;;76.53;41.07;;;9.80;99.90;;;;;;4988247;28;20136;-81
2023/10/26 03:40:51;;;;;;;68.97;39.67;;;9.90;99.90;;;;;;5002290;28;20045;-80
2023/10/26 03:43:17;;;;;;;78.37;41.47;;;9.90;99.90;;;;;;5039644;28;20045;-80
2023/10/26 03:45:45;;;;;;;67.20;39.07;;;9.80;99.90;;;;;;5035297;28;20052;-80
2023/10/26 03:48:11;;;;;;;72.57;40.20;;;9.80;99.90;;;;;;5063873;28;20037;-81
2023/10/26 03:50:37;;;;;;;74.00;40.97;;;9.80;99.90;;;;;;5035539;28;20163;-81
2023/10/26 03:53:03;;;;;;;70.13;39.03;;;9.80;99.90;;;;;;5021995;28;20095;-81
2023/10/26 03:55:29;;;;;;;78.87;42.10;;;9.80;99.90;;;;;;5006164;28;20105;-81
2023/10/26 03:57:54;;;;;;;70.87;40.23;;;9.80;99.90;;;;;;5019876;28;20137;-81
2023/10/26 04:00:21;;;;;;;74.77;40.93;;;9.80;99.90;;;;;;5008053;28;20044;-81
2023/10/26 04:02:47;;;;;;;77.20;42.40;;;9.80;99.90;;;;;;4987983;28;20441;-80
2023/10/26 04:05:15;;;;;;;77.33;41.67;;;9.80;99.90;;;;;;5038282;28;20508;-81
2023/10/26 04:07:42;;;;;;;75.30;40.93;;;9.80;99.90;;;;;;5070070;28;20034;-83
2023/10/26 04:10:09;;;;;;;77.63;42.37;;;9.90;99.90;;;;;;5003937;28;20060;-80
2023/10/26 04:12:35;;;;;;;69.57;39.57;;;9.80;99.90;;;;;;5005177;28;21388;-80
2023/10/26 04:15:04;;;;;;;72.90;40.70;;;9.80;99.90;;;;;;5016811;28;20448;-81
2023/10/26 04:17:30;;;;;;;76.63;41.63;;;9.80;99.90;;;;;;5036330;28;20057;-80
2023/10/26 04:19:57;;;;;;;81.50;42.67;;;9.80;99.90;;;;;;5036858;28;20111;-80
2023/10/26 04:22:24;;;;;;;77.83;42.47;;;9.80;99.90;;;;;;5041245;28;20050;-80
2023/10/26 04:24:50;;;;;;;72.77;41.27;;;9.80;99.90;;;;;;5020894;28;20079;-80
2023/10/26 04:27:16;;;;;;;77.33;41.53;;;9.80;99.90;;;;;;5022380;28;20029;-80
2023/10/26 04:29:42;;;;;;;75.03;41.87;;;9.90;99.90;;;;;;5003524;28;20041;-81
2023/10/26 04:32:08;;;;;;;75.13;41.50;;;9.90;99.90;;;;;;5018325;28;20150;-80
2023/10/26 04:34:33;;;;;;;78.80;42.67;;;9.90;99.90;;;;;;5021496;28;20100;-80
2023/10/26 04:36:59;;;;;;;67.63;39.77;;;9.90;99.90;;;;;;5023278;28;20045;-81
2023/10/26 04:39:25;;;;;;;86.97;44.20;;;9.90;99.90;;;;;;5024303;28;20052;-81
2023/10/26 04:41:50;;;;;;;78.73;42.17;;;9.80;99.90;;;;;;5022298;28;20038;-82
2023/10/26 04:44:18;;;;;;;76.20;41.27;;;9.80;99.90;;;;;;5007177;28;20049;-82
2023/10/26 04:46:44;;;;;;;68.53;40.57;;;9.80;99.90;;;;;;5041032;28;20126;-85
2023/10/26 04:49:10;;;;;;;77.30;41.17;;;9.90;99.90;;;;;;5005945;28;20607;-86
2023/10/26 04:51:35;;;;;;;79.83;42.13;;;9.80;99.90;;;;;;5039576;28;20057;-85
2023/10/26 04:54:01;;;;;;;69.57;39.70;;;9.90;99.90;;;;;;5040561;28;20458;-81
2023/10/26 04:56:27;;;;;;;84.03;43.90;;;9.80;99.90;;;;;;5065920;28;20116;-82
2023/10/26 04:58:53;;;;;;;72.67;41.03;;;9.80;99.90;;;;;;5044704;28;20124;-80
2023/10/26 05:01:18;;;;;;;73.07;40.13;;;9.80;99.90;;;;;;5039719;28;20461;-82
2023/10/26 05:03:44;;;;;;;70.77;39.93;;;9.80;99.90;;;;;;5007050;28;20045;-82
2023/10/26 05:06:10;;;;;;;76.77;41.93;;;9.80;99.90;;;;;;5005902;28;20412;-83
2023/10/26 05:08:35;;;;;;;72.77;40.77;;;9.80;99.90;;;;;;5027917;28;20053;-83
2023/10/26 05:11:01;;;;;;;70.03;39.10;;;9.80;99.90;;;;;;5038896;28;20610;-82
2023/10/26 05:13:28;;;;;;;69.47;40.07;;;9.80;99.90;;;;;;5039686;28;20041;-82
2023/10/26 05:15:53;;;;;;;73.63;40.80;;;9.80;99.90;;;;;;5021410;28;20033;-82
2023/10/26 05:18:19;;;;;;;68.00;39.80;;;9.80;99.90;;;;;;5006386;28;20109;-82
2023/10/26 05:20:51;;;;;;;75.10;43.17;;;9.80;99.90;;;;;;5005348;28;20040;-83
2023/10/26 05:23:17;;;;;;;77.15;41.80;;;9.80;99.90;;;;;;5006162;28;20045;-82
2023/10/26 05:25:43;;;;;;;78.90;42.83;;;9.80;99.90;;;;;;4990079;28;20072;-84
2023/10/26 05:28:09;;;;;;;73.40;41.17;;;9.80;99.90;;;;;;5001807;28;20029;-83
2023/10/26 05:30:34;;;;;;;70.30;40.53;;;9.80;99.90;;;;;;5040416;28;20106;-82
2023/10/26 05:33:00;;;;;;;74.47;40.23;;;9.80;99.90;;;;;;5026677;28;20432;-83
2023/10/26 05:35:26;;;;;;;76.67;40.97;;;9.80;99.90;;;;;;5025645;28;20042;-82
2023/10/26 05:37:52;;;;;;;89.67;44.17;;;9.80;99.90;;;;;;5071680;28;20048;-82
2023/10/26 05:40:17;;;;;;;70.90;39.07;;;9.70;99.90;;;;;;5042819;28;20052;-82
2023/10/26 05:42:43;;;;;;;79.13;43.53;;;9.70;99.90;;;;;;5039784;28;20076;-83
2023/10/26 05:45:09;;;;;;;85.30;43.50;;;9.70;99.90;;;;;;5003644;28;20036;-83
2023/10/26 05:47:35;;;;;;;66.23;39.63;;;9.70;99.90;;;;;;5041346;28;20041;-83
2023/10/26 05:50:01;;;;;;;83.77;42.73;;;9.70;99.90;;;;;;5039686;28;20440;-83
2023/10/26 05:52:27;;;;;;;68.67;38.77;;;9.70;99.90;;;;;;5055808;28;20045;-82
2023/10/26 05:54:54;;;;;;;77.90;41.20;;;9.70;99.90;;;;;;5022020;28;20049;-82
2023/10/26 05:57:19;;;;;;;77.00;40.80;;;9.70;99.90;;;;;;5007222;28;20041;-82
2023/10/26 05:59:45;;;;;;;81.87;42.10;;;9.70;99.90;;;;;;5023006;28;20303;-86
2023/10/26 06:02:11;;;;;;;81.87;41.83;;;9.70;99.90;;;;;;5055070;28;20041;-85
2023/10/26 06:04:36;;;;;;;76.70;40.63;;;9.70;99.90;;;;;;5024055;28;20052;-86
2023/10/26 06:07:03;;;;;;;77.70;40.57;;;9.70;99.90;;;;;;5045468;28;20037;-85
2023/10/26 06:09:29;;;;;;;86.97;44.27;;;9.70;99.90;;;;;;5010278;28;20044;-84
2023/10/26 06:11:54;;;;;;;79.50;42.77;;;9.70;99.90;;;;;;5028027;28;20053;-85
2023/10/26 06:14:20;;;;;;;81.73;45.23;;;9.70;99.90;;;;;;5045457;28;20056;-90
2023/10/26 06:16:46;;;;;;;79.20;41.40;;;9.60;99.90;;;;;;5032225;28;20135;-86
2023/10/26 06:19:11;;;;;;;83.20;44.73;;;9.60;99.90;;;;;;5045343;22;20037;-84
2023/10/26 06:21:38;;;;;;;87.23;43.90;;;9.60;99.90;;;;;;4993919;28;20136;-86
2023/10/26 06:24:06;;;;;;;75.10;40.13;;;9.60;99.90;;;;;;5025692;28;21397;-88
2023/10/26 06:26:32;;;;;;;84.03;42.33;;;9.60;99.90;;;;;;4995304;28;20045;-86
2023/10/26 06:28:57;;;;;;;77.53;41.67;;;9.50;99.90;;;;;;5013161;28;20038;-85
2023/10/26 06:31:23;;;;;;;83.57;43.70;;;9.50;99.90;;;;;;5011686;28;20077;-84
2023/10/26 06:33:49;;;;;;;95.17;45.60;;;9.50;99.90;;;;;;5026962;28;20069;-85
2023/10/26 06:36:15;;;;;;;95.23;45.20;;;9.50;99.90;;;;;;4998431;28;20040;-84
2023/10/26 06:38:41;;;;;;;93.17;45.67;;;9.50;99.90;;;;;;5038345;28;20082;-83
2023/10/26 06:41:07;;;;;;;92.87;45.93;;;9.50;99.90;;;;;;5024124;28;20046;-84
2023/10/26 06:43:33;;;;;;;87.03;45.10;;;9.50;99.90;;;;;;5035371;28;20097;-83
2023/10/26 06:46:00;;;;;;;101.23;47.03;;;9.50;99.90;;;;;;4972220;28;20147;-84
2023/10/26 06:48:26;;;;;;;92.03;42.97;;;9.50;99.90;;;;;;5003798;28;20053;-84
2023/10/26 06:50:58;;;;;;;110.97;49.60;;;9.50;99.90;;;;;;4990884;28;20054;-85
2023/10/26 06:53:24;;;;;;;93.13;45.13;;;9.50;99.90;;;;;;4996050;28;20045;-84
2023/10/26 06:55:51;;;;;;;104.23;47.30;;;9.50;99.90;;;;;;5026926;28;20387;-85
2023/10/26 06:58:17;;;;;;;82.73;42.00;;;9.50;99.90;;;;;;5023665;28;20057;-85
2023/10/26 07:00:43;;;;;;;82.40;42.80;;;9.50;99.90;;;;;;5003966;28;20045;-85
2023/10/26 07:03:09;;;;;;;78.47;41.07;;;9.50;99.90;;;;;;4989318;28;20654;-83
2023/10/26 07:05:34;;;;;;;80.67;43.03;;;9.50;99.90;;;;;;5001169;28;20100;-85
2023/10/26 07:08:01;;;;;;;83.53;43.03;;;9.60;99.90;;;;;;5006804;28;20106;-84
2023/10/26 07:10:27;;;;;;;78.07;41.13;;;9.60;99.90;;;;;;5003161;28;20046;-79
2023/10/26 07:12:53;;;;;;;76.60;41.73;;;9.60;99.90;;;;;;5006679;28;20490;-85
2023/10/26 07:15:18;;;;;;;78.63;41.03;;;9.70;99.90;;;;;;5006520;28;20834;-85
2023/10/26 07:17:44;;;;;;;73.87;40.30;;;9.70;99.90;;;;;;5000235;28;20578;-85
2023/10/26 07:20:12;;;;;;;77.87;42.10;;;9.70;99.90;;;;;;5016583;28;20173;-85
2023/10/26 07:22:39;;;;;;;76.40;42.30;;;9.80;99.90;;;;;;5006984;28;20056;-85
2023/10/26 07:25:06;;;;;;;85.80;42.17;;;9.80;99.90;;;;;;5025181;28;20392;-84
2023/10/26 07:27:32;;;;;;;77.10;40.47;;;9.80;99.90;;;;;;5041879;28;20045;-84
2023/10/26 07:30:01;;;;;;;77.33;41.17;;;9.80;99.90;;;;;;4992352;28;20060;-85
2023/10/26 07:32:27;;;;;;;83.93;42.33;;;9.80;99.90;;;;;;5027032;28;20041;-85
2023/10/26 07:34:54;;;;;;;76.63;40.93;;;9.80;99.90;;;;;;4992078;28;20049;-84
2023/10/26 07:37:20;;;;;;;74.73;40.47;;;9.80;99.90;;;;;;4995763;28;20052;-84
2023/10/26 07:39:45;;;;;;;72.03;38.23;;;9.90;99.90;;;;;;5002763;28;20080;-84
2023/10/26 07:42:11;;;;;;;69.70;38.67;;;9.90;99.90;;;;;;5034323;28;20052;-84
2023/10/26 07:44:37;;;;;;;70.30;37.30;;;10.00;99.90;;;;;;4987998;28;20050;-85
2023/10/26 07:47:04;;;;;;;73.10;38.67;;;10.00;99.90;;;;;;5015237;28;20080;-85
2023/10/26 07:49:31;;;;;;;63.97;37.67;;;10.10;99.90;;;;;;5002709;28;20105;-84
2023/10/26 07:51:56;;;;;;;74.30;38.73;;;10.10;99.90;;;;;;5006832;28;20051;-85
2023/10/26 07:54:22;;;;;;;71.20;37.10;;;10.10;99.90;;;;;;4993381;28;20558;-86
2023/10/26 07:56:48;;;;;;;85.23;56.73;;;10.10;99.90;;;;;;5023285;28;20056;-84
2023/10/26 07:59:14;;;;;;;69.60;38.87;;;10.10;99.90;;;;;;4977781;28;20069;-85
2023/10/26 08:01:39;;;;;;;68.50;39.00;;;10.10;99.90;;;;;;5012044;28;20409;-84
2023/10/26 08:04:05;;;;;;;68.00;38.27;;;10.10;99.90;;;;;;4984819;28;20458;-85
2023/10/26 08:06:31;;;;;;;74.07;38.23;;;10.00;99.90;;;;;;5008595;28;20068;-83
2023/10/26 08:08:58;;;;;;;69.27;38.93;;;10.10;99.90;;;;;;5021772;28;20128;-86
2023/10/26 08:11:24;;;;;;;69.23;38.10;;;10.00;99.90;;;;;;5004327;28;20037;-85
2023/10/26 08:13:50;;;;;;;69.10;36.70;;;10.00;99.90;;;;;;5028514;28;20528;-83
2023/10/26 08:16:16;;;;;;;61.23;34.67;;;10.00;99.90;;;;;;5000214;28;20107;-83
2023/10/26 08:18:42;;;;;;;58.80;33.87;;;10.00;99.90;;;;;;4969661;28;20054;-84
2023/10/26 08:21:09;;;;;;;66.23;36.80;;;10.00;99.90;;;;;;4994779;28;20058;-83
2023/10/26 08:23:35;;;;;;;67.40;36.23;;;10.00;99.90;;;;;;4995531;28;20101;-84
2023/10/26 08:26:10;;;;;;;65.33;35.50;;;10.00;99.90;;;;;;4994704;28;20072;-84
2023/10/26 08:28:36;;;;;;;69.87;36.57;;;9.90;99.90;;;;;;4971727;28;20605;-83
2023/10/26 08:31:02;;;;;;;67.13;36.70;;;10.00;99.90;;;;;;5020506;28;20046;-84
2023/10/26 08:33:33;;;;;;;61.00;34.63;;;10.00;99.90;;;;;;5026740;28;20080;-84
2023/10/26 08:35:59;;;;;;;67.53;34.90;;;10.00;99.90;;;;;;5008919;28;20049;-85
2023/10/26 08:38:25;;;;;;;64.60;35.17;;;10.00;99.90;;;;;;4991297;28;20045;-84
2023/10/26 08:40:54;;;;;;;63.27;33.83;;;9.90;99.90;;;;;;5027022;28;20049;-85
2023/10/26 08:43:21;;;;;;;62.70;33.57;;;10.00;99.90;;;;;;5030737;28;20042;-85
2023/10/26 08:45:48;;;;;;;61.30;30.87;;;10.00;99.90;;;;;;5016004;28;20045;-85
2023/10/26 08:48:18;;;;;;;57.83;32.57;;;10.00;99.90;;;;;;4990123;28;20089;-84
2023/10/26 08:50:49;;;;;;;57.00;31.73;;;10.00;99.90;;;;;;5031638;28;20046;-85
2023/10/26 08:53:15;;;;;;;60.73;33.00;;;10.10;99.90;;;;;;4993778;28;20121;-84
2023/10/26 08:55:42;;;;;;;51.27;29.73;;;10.20;99.90;;;;;;5019887;28;20099;-84
2023/10/26 08:58:08;;;;;;;51.03;30.27;;;10.10;99.90;;;;;;5020512;28;20056;-87
2023/10/26 09:00:41;;;;;;;48.47;28.47;;;10.10;99.90;;;;;;4991764;28;20042;-84
2023/10/26 09:03:07;;;;;;;53.33;32.23;;;10.10;99.90;;;;;;5017476;28;20566;-80
2023/10/26 09:05:50;;;;;;;50.77;30.80;;;10.20;99.90;;;;;;5013610;28;20033;-83
2023/10/26 09:08:17;;;;;;;52.77;30.97;;;10.20;99.90;;;;;;5019071;28;20049;-82
2023/10/26 09:10:43;;;;;;;51.00;30.40;;;10.20;99.90;;;;;;5016483;28;20038;-83
2023/10/26 09:13:08;;;;;;;46.40;27.73;;;10.20;99.90;;;;;;4979332;28;20048;-82
2023/10/26 09:15:48;;;;;;;47.40;29.90;;;10.20;99.90;;;;;;5004589;28;20105;-82
2023/10/26 09:18:17;;;;;;;51.57;30.20;;;10.20;99.90;;;;;;4981376;28;20509;-83
2023/10/26 09:20:43;;;;;;;46.00;28.23;;;10.20;99.90;;;;;;5014537;28;20100;-83
2023/10/26 09:23:27;;;;;;;46.20;28.27;;;10.30;99.90;;;;;;5007429;28;20046;-85
2023/10/26 09:26:04;;;;;;;45.53;27.10;;;10.20;99.90;;;;;;5012639;28;20041;-82
2023/10/26 09:28:50;;;;;;;47.67;28.37;;;10.20;99.90;;;;;;5024329;28;20042;-83
2023/10/26 09:31:17;;;;;;;47.00;28.03;;;10.20;99.90;;;;;;5012406;28;20045;-83
2023/10/26 09:33:44;;;;;;;49.20;28.97;;;10.20;99.90;;;;;;4992163;28;20081;-83
2023/10/26 09:36:15;;;;;;;46.03;28.40;;;10.30;99.90;;;;;;5009379;28;20038;-83
2023/10/26 09:38:41;;;;;;;46.40;28.47;;;10.30;99.90;;;;;;5025782;28;20486;-80
2023/10/26 09:41:15;;;;;;;42.93;28.67;;;10.30;99.90;;;;;;4996082;28;20042;-85
2023/10/26 09:43:41;;;;;;;46.43;29.03;;;10.30;99.90;;;;;;5007826;28;20065;-82
2023/10/26 09:46:11;;;;;;;51.15;30.05;;;10.30;99.90;;;;;;5009344;28;20048;-83
2023/10/26 09:48:38;;;;;;;49.93;29.80;;;10.40;99.90;;;;;;5027082;28;20414;-83
2023/10/26 09:51:04;;;;;;;43.50;27.48;;;10.40;99.90;;;;;;5016778;28;20181;-83
2023/10/26 09:53:39;;;;;;;47.60;28.80;;;10.40;99.90;;;;;;4998697;28;20052;-83
2023/10/26 09:56:08;;;;;;;42.53;27.37;;;10.40;99.90;;;;;;5014670;28;20038;-82
2023/10/26 09:58:43;;;;;;;44.17;27.33;;;10.30;99.90;;;;;;5036619;28;20052;-83
2023/10/26 10:01:32;;;;;;;44.70;26.63;;;10.30;99.90;;;;;;5014467;28;20087;-81
2023/10/26 10:03:59;;;;;;;43.27;27.07;;;10.30;99.90;;;;;;4999792;28;20038;-83
2023/10/26 10:06:47;;;;;;;45.70;27.90;;;10.30;99.90;;;;;;5026817;28;20057;-82
2023/10/26 10:09:13;;;;;;;42.90;26.80;;;10.40;99.90;;;;;;5023552;28;20077;-82
2023/10/26 10:11:39;;;;;;;44.33;28.37;;;10.40;99.90;;;;;;4995597;28;20050;-82
2023/10/26 10:14:05;;;;;;;43.50;27.20;;;10.40;99.90;;;;;;5027087;28;20046;-83
2023/10/26 10:16:34;;;;;;;45.77;28.17;;;10.40;99.90;;;;;;5009548;28;20525;-79
2023/10/26 10:19:19;;;;;;;42.03;26.00;;;10.50;99.90;;;;;;5035764;28;20053;-81
2023/10/26 10:21:47;;;;;;;47.58;28.33;;;10.50;99.90;;;;;;5020149;28;20042;-80
2023/10/26 10:24:39;;;;;;;47.57;28.57;;;10.50;99.90;;;;;;5003678;28;20046;-83
2023/10/26 10:27:18;;;;;;;46.95;28.40;;;10.60;99.90;;;;;;5057113;28;20041;-82
2023/10/26 10:29:44;;;;;;;44.08;26.67;;;10.70;99.90;;;;;;4982614;28;20054;-82
2023/10/26 10:32:11;;;;;;;49.17;28.55;;;10.70;99.90;;;;;;5023703;28;20099;-81
2023/10/26 10:34:44;;;;;;;45.72;27.35;;;10.80;99.90;;;;;;5025990;28;20080;-82
2023/10/26 10:37:11;;;;;;;43.20;26.70;;;10.80;99.90;;;;;;5037190;28;20515;-82
2023/10/26 10:39:38;;;;;;;44.92;28.25;;;10.80;99.90;;;;;;5006619;28;21610;-82
2023/10/26 10:42:09;;;;;;;44.95;28.38;;;10.80;99.90;;;;;;4967052;28;20042;-82
2023/10/26 10:44:36;;;;;;;40.08;26.48;;;10.90;99.90;;;;;;5017267;28;20097;-82
2023/10/26 10:47:01;;;;;;;42.42;26.08;;;10.90;99.90;;;;;;5009799;28;20526;-82
2023/10/26 10:49:29;;;;;;;42.72;26.40;;;10.90;99.90;;;;;;4995193;28;20042;-82
2023/10/26 10:51:55;;;;;;;41.03;25.65;;;11.00;99.90;;;;;;4988635;28;20057;-82
2023/10/26 10:54:25;;;;;;;41.58;25.60;;;11.10;99.90;;;;;;5005283;28;20512;-82
2023/10/26 10:56:50;;;;;;;39.60;26.00;;;11.10;99.90;;;;;;5033606;28;20355;-82
2023/10/26 10:59:22;;;;;;;40.45;27.10;;;11.10;99.90;;;;;;5023004;28;20041;-82
2023/10/26 11:02:12;;;;;;;40.92;26.38;;;11.10;99.90;;;;;;5000685;28;20058;-84
2023/10/26 11:04:54;;;;;;;40.88;26.67;;;11.10;99.90;;;;;;5042683;28;20099;-79
2023/10/26 11:07:26;;;;;;;44.22;28.15;;;11.10;99.90;;;;;;5007757;28;20048;-83
2023/10/26 11:10:00;;;;;;;39.50;26.92;;;11.10;99.90;;;;;;4980874;28;20049;-83
2023/10/26 11:12:26;;;;;;;37.95;25.83;;;11.10;99.90;;;;;;5001052;28;20189;-82
2023/10/26 11:14:53;;;;;;;40.13;26.17;;;11.20;99.90;;;;;;5017352;28;20054;-83
2023/10/26 11:17:21;;;;;;;39.22;25.85;;;11.20;99.90;;;;;;5010628;28;20072;-82
2023/10/26 11:19:48;;;;;;;39.47;25.05;;;11.20;99.90;;;;;;4994811;28;20066;-83
2023/10/26 11:22:15;;;;;;;42.58;26.95;;;11.30;99.90;;;;;;5014834;28;20042;-83
2023/10/26 11:24:41;;;;;;;40.45;25.75;;;11.30;99.90;;;;;;5004600;28;20045;-82
2023/10/26 11:27:12;;;;;;;37.65;25.17;;;11.40;99.90;;;;;;5029759;28;20046;-83
2023/10/26 11:29:40;;;;;;;35.72;24.77;;;11.40;99.90;;;;;;5008751;28;20049;-83
2023/10/26 11:32:19;;;;;;;38.55;24.58;;;11.40;99.90;;;;;;4992677;28;20058;-83
2023/10/26 11:35:13;;;;;;;34.65;23.30;;;11.40;99.90;;;;;;5016754;28;20579;-82
2023/10/26 11:37:55;;;;;;;34.05;24.65;;;11.40;99.90;;;;;;5019398;28;20057;-82
2023/10/26 11:40:31;;;;;;;34.40;24.48;;;11.40;99.90;;;;;;5008574;28;20068;-82
2023/10/26 11:42:59;;;;;;;33.83;23.65;;;11.60;99.90;;;;;;5024713;28;20124;-82
2023/10/26 11:45:27;;;;;;;34.03;23.73;;;11.70;99.90;;;;;;4993024;28;20038;-81
2023/10/26 11:48:00;;;;;;;35.47;23.85;;;11.80;99.90;;;;;;4999518;28;20042;-82
2023/10/26 11:50:35;;;;;;;36.22;23.73;;;11.80;99.90;;;;;;5013134;28;20071;-82
2023/10/26 11:53:04;;;;;;;33.40;24.38;;;11.80;99.90;;;;;;5025327;28;20045;-82
2023/10/26 11:55:33;;;;;;;38.30;25.98;;;11.80;99.90;;;;;;5003054;28;20049;-83
2023/10/26 11:58:00;;;;;;;34.15;23.98;;;11.80;99.90;;;;;;5021860;28;20069;-82
2023/10/26 12:00:27;;;;;;;30.40;22.30;;;11.80;99.90;;;;;;4981784;28;20042;-82
2023/10/26 12:02:56;;;;;;;38.60;23.70;;;11.90;99.90;;;;;;4986983;28;20069;-83
2023/10/26 12:05:23;;;;;;;35.55;23.30;;;11.80;99.90;;;;;;5022162;28;20112;-82
2023/10/26 12:07:49;;;;;;;34.47;23.77;;;11.90;99.90;;;;;;5010772;28;20034;-83
2023/10/26 12:10:18;;;;;;;29.00;21.83;;;12.10;99.90;;;;;;5000158;28;20049;-82
2023/10/26 12:12:48;;;;;;;33.08;22.92;;;12.10;99.90;;;;;;5053705;28;20052;-83
2023/10/26 12:15:15;;;;;;;31.83;21.92;;;12.20;99.90;;;;;;5024650;28;20049;-82
2023/10/26 12:17:41;;;;;;;33.45;23.48;;;12.10;99.90;;;;;;5010593;28;20077;-82
2023/10/26 12:20:08;;;;;;;33.22;22.42;;;12.10;99.90;;;;;;5016839;28;20436;-81
2023/10/26 12:22:34;;;;;;;32.15;22.45;;;12.20;99.90;;;;;;5011508;28;20528;-83
2023/10/26 12:25:04;;;;;;;34.65;23.60;;;12.20;99.90;;;;;;4995492;28;20060;-82
2023/10/26 12:27:30;;;;;;;34.92;23.85;;;12.20;99.90;;;;;;5006691;28;20037;-82
2023/10/26 12:29:56;;;;;;;31.02;22.02;;;12.20;99.90;;;;;;5028103;28;20050;-82
2023/10/26 12:32:23;;;;;;;32.47;22.48;;;12.20;99.90;;;;;;4971142;28;20046;-83